Time;durP1;ratioP1;P1;durP2;ratioP2;P2;SDS_P1;SDS_P2;PMS_P1;PMS_P2;Temp;Humidity;BMP_temperature;BMP_pressure;BME280_temperature;BME280_humidity;BME280_pressure;Samples;Min_cycle;Max_cycle;Signal;HPM_P1;HPM_P2
2021/12/02 00:02:09;;;;;;;0.00;0.00;;;;;;;4.20;62.11;98593.34;5093040;28;20024;-67
2021/12/02 00:04:37;;;;;;;0.00;0.00;;;;;;;4.33;61.95;98616.00;5074336;28;20139;-70
2021/12/02 00:07:04;;;;;;;0.00;0.00;;;;;;;4.32;62.10;98612.56;5093141;28;20040;-70
2021/12/02 00:09:31;;;;;;;0.00;0.00;;;;;;;4.31;62.17;98604.88;5093071;28;20505;-70
2021/12/02 00:11:59;;;;;;;0.00;0.00;;;;;;;4.29;62.08;98605.09;5093194;28;20028;-69
2021/12/02 00:14:26;;;;;;;0.00;0.00;;;;;;;4.27;61.96;98591.31;5091935;28;20024;-69
2021/12/02 00:22:10;;;;;;;0.00;0.00;;;;;;;4.46;61.70;98598.94;5092518;28;20047;-69
2021/12/02 00:24:37;;;;;;;0.00;0.00;;;;;;;4.49;61.65;98606.38;5092203;28;20444;-68
2021/12/02 00:27:09;;;;;;;0.00;0.00;;;;;;;4.44;61.43;98596.56;5074421;28;20032;-69
2021/12/02 00:29:36;;;;;;;0.10;0.10;;;;;;;4.48;61.70;98592.34;5092355;28;20102;-70
2021/12/02 00:32:05;;;;;;;0.00;0.00;;;;;;;4.53;61.60;98601.41;5092554;28;20518;-70
2021/12/02 00:34:32;;;;;;;0.00;0.00;;;;;;;4.50;61.60;98589.47;5092147;28;20027;-70
2021/12/02 00:37:00;;;;;;;0.20;0.20;;;;;;;4.46;61.46;98580.41;5092747;28;20027;-71
2021/12/02 00:39:27;;;;;;;;;;;;;;;4.59;61.12;98589.81;5074741;28;20028;-69
2021/12/02 00:41:54;;;;;;;0.00;0.00;;;;;;;4.54;61.02;98587.94;5092401;28;19919;-69
2021/12/02 00:44:19;;;;;;;0.00;0.00;;;;;;;4.53;60.93;98591.63;5091975;28;20059;-69
2021/12/02 00:46:45;;;;;;;0.00;0.00;;;;;;;4.57;61.13;98600.66;5091345;28;20055;-70
2021/12/02 00:49:15;;;;;;;0.00;0.00;;;;;;;4.55;61.24;98608.03;5092558;28;20020;-70
2021/12/02 00:51:45;;;;;;;0.00;0.00;;;;;;;4.46;60.94;98586.50;5091760;28;20030;-70
2021/12/02 00:54:12;;;;;;;0.00;0.00;;;;;;;4.48;60.94;98600.31;5092312;28;20020;-71
2021/12/02 00:56:39;;;;;;;0.00;0.00;;;;;;;4.46;60.70;98594.44;5092129;28;20028;-69
2021/12/02 00:59:06;;;;;;;0.00;0.00;;;;;;;4.52;60.91;98605.91;5091528;28;20028;-68
2021/12/02 01:01:36;;;;;;;0.00;0.00;;;;;;;4.54;61.06;98610.94;5091144;28;20020;-69
2021/12/02 01:04:15;;;;;;;0.00;0.00;;;;;;;4.55;61.04;98616.00;5090722;28;20073;-69
2021/12/02 01:06:42;;;;;;;0.00;0.00;;;;;;;4.46;61.07;98591.00;5091383;28;20031;-68
2021/12/02 01:09:10;;;;;;;0.00;0.00;;;;;;;4.56;61.27;98609.66;5073033;28;20020;-70
2021/12/02 01:11:36;;;;;;;0.00;0.00;;;;;;;4.54;61.17;98618.88;5090960;28;20032;-69
2021/12/02 01:14:02;;;;;;;0.00;0.00;;;;;;;4.51;60.99;98606.16;5091740;28;20062;-71
2021/12/02 01:16:28;;;;;;;0.00;0.00;;;;;;;4.53;60.96;98612.81;5091335;28;20034;-69
2021/12/02 01:18:55;;;;;;;0.00;0.00;;;;;;;4.41;60.93;98596.25;5091211;28;20107;-70
2021/12/02 01:21:25;;;;;;;0.00;0.00;;;;;;;4.37;60.90;98592.47;5091863;28;20032;-68
2021/12/02 01:23:54;;;;;;;0.00;0.00;;;;;;;4.45;60.93;98606.06;5091517;28;20031;-68
2021/12/02 01:26:20;;;;;;;0.00;0.00;;;;;;;4.43;61.13;98610.84;5091211;28;20027;-68
2021/12/02 01:28:48;;;;;;;0.00;0.00;;;;;;;4.39;60.95;98607.06;5091538;28;20028;-69
2021/12/02 01:31:14;;;;;;;0.00;0.00;;;;;;;4.29;61.18;98588.41;5091251;28;20025;-70
2021/12/02 01:33:43;;;;;;;0.00;0.00;;;;;;;4.26;61.21;98591.53;5090741;28;20516;-69
2021/12/02 01:36:09;;;;;;;0.00;0.00;;;;;;;4.32;61.39;98619.69;5091252;28;20039;-70
2021/12/02 01:38:35;;;;;;;0.00;0.00;;;;;;;4.30;61.22;98613.84;5091298;28;20047;-68
2021/12/02 01:41:03;;;;;;;0.00;0.00;;;;;;;3.95;61.64;98559.41;5090485;28;20033;-69
2021/12/02 01:43:50;;;;;;;0.00;0.00;;;;;;;4.25;61.76;98606.63;5089706;28;20085;-70
2021/12/02 01:46:21;;;;;;;0.00;0.00;;;;;;;4.21;62.22;98589.66;5091534;28;20040;-69
2021/12/02 01:49:01;;;;;;;0.00;0.00;;;;;;;4.02;62.28;98565.31;5073030;28;20092;-69
2021/12/02 01:51:27;;;;;;;0.00;0.00;;;;;;;4.16;62.62;98586.91;5090854;28;20020;-69
2021/12/02 01:54:02;;;;;;;0.00;0.00;;;;;;;4.05;62.96;98574.59;5091162;28;20123;-70
2021/12/02 01:56:30;;;;;;;0.00;0.00;;;;;;;4.12;63.33;98585.81;5072810;28;20462;-69
2021/12/02 01:59:09;;;;;;;0.00;0.00;;;;;;;4.07;62.94;98591.84;5091033;28;20028;-69
2021/12/02 02:01:36;;;;;;;0.00;0.00;;;;;;;4.01;62.65;98584.88;5090224;28;20032;-69
2021/12/02 02:04:03;;;;;;;0.00;0.00;;;;;;;4.01;62.95;98585.66;5090627;28;20032;-69
2021/12/02 02:06:33;;;;;;;0.00;0.00;;;;;;;3.88;63.51;98580.72;5090714;28;20077;-70
2021/12/02 02:08:59;;;;;;;0.00;0.00;;;;;;;3.80;63.65;98570.56;5072772;28;20048;-69
2021/12/02 02:11:28;;;;;;;0.00;0.00;;;;;;;3.77;64.07;98571.03;5090979;28;20081;-69
2021/12/02 02:13:54;;;;;;;0.00;0.00;;;;;;;3.85;63.95;98595.25;5090665;28;20028;-68
2021/12/02 02:16:19;;;;;;;0.00;0.00;;;;;;;3.83;63.98;98600.00;5090436;28;20162;-67
2021/12/02 02:18:45;;;;;;;0.00;0.00;;;;;;;3.82;64.05;98594.91;5074215;28;20035;-68
2021/12/02 02:21:14;;;;;;;0.00;0.00;;;;;;;3.83;64.15;98592.06;5097200;28;20100;-69
2021/12/02 02:23:45;;;;;;;;;;;;;;;3.83;64.08;98602.63;5097742;28;20027;-67
2021/12/02 02:26:11;;;;;;;0.00;0.00;;;;;;;3.81;64.02;98590.69;5097523;28;19912;-70
2021/12/02 02:28:37;;;;;;;0.00;0.00;;;;;;;3.72;64.19;98582.34;5097330;28;20898;-69
2021/12/02 02:31:02;;;;;;;0.00;0.00;;;;;;;3.75;64.11;98595.09;5079398;28;20032;-70
2021/12/02 02:33:38;;;;;;;0.00;0.00;;;;;;;3.74;63.80;98585.56;5097431;28;20026;-71
2021/12/02 02:36:06;;;;;;;0.00;0.00;;;;;;;3.57;64.05;98574.22;5097275;28;20031;-71
2021/12/02 02:38:32;;;;;;;0.00;0.00;;;;;;;3.61;64.72;98599.13;5097208;28;20491;-72
2021/12/02 02:41:00;;;;;;;0.00;0.00;;;;;;;3.57;64.57;98585.56;5097281;28;20058;-70
2021/12/02 02:43:26;;;;;;;0.00;0.00;;;;;;;3.48;64.70;98584.38;5097363;28;20024;-70
2021/12/02 02:45:52;;;;;;;0.00;0.00;;;;;;;3.46;65.13;98583.81;5096923;28;20564;-70
2021/12/02 02:48:17;;;;;;;0.00;0.00;;;;;;;3.46;65.07;98603.13;5097108;28;20028;-71
2021/12/02 02:50:43;;;;;;;0.00;0.00;;;;;;;3.44;65.51;98599.94;5097111;28;20036;-71
2021/12/02 02:53:15;;;;;;;0.00;0.00;;;;;;;3.43;65.68;98598.31;5096729;28;20046;-71
2021/12/02 02:55:43;;;;;;;0.00;0.00;;;;;;;3.30;65.77;98574.84;5096948;28;20053;-71
2021/12/02 03:01:06;;;;;;;0.05;0.05;;;;;;;3.15;65.83;98562.16;5097254;28;20032;-70
2021/12/02 03:06:25;;;;;;;0.00;0.00;;;;;;;3.41;65.98;98600.41;5097241;28;20503;-70
2021/12/02 03:09:00;;;;;;;0.00;0.00;;;;;;;3.30;65.91;98573.00;5095997;28;20044;-69
2021/12/02 03:11:28;;;;;;;0.00;0.00;;;;;;;3.38;65.88;98592.94;5097432;28;20132;-69
2021/12/02 03:13:55;;;;;;;0.00;0.00;;;;;;;3.36;66.10;98579.16;5096923;28;20036;-69
2021/12/02 03:19:05;;;;;;;0.00;0.00;;;;;;;3.26;66.35;98579.00;5077147;28;20043;-68
2021/12/02 03:21:31;;;;;;;0.00;0.00;;;;;;;3.29;66.45;98589.88;5089463;28;20494;-71
2021/12/02 03:23:59;;;;;;;0.00;0.00;;;;;;;3.22;66.35;98585.81;5096787;28;20035;-70
2021/12/02 03:26:26;;;;;;;0.00;0.00;;;;;;;3.29;65.92;98597.81;5097075;28;20471;-71
2021/12/02 03:28:52;;;;;;;0.00;0.00;;;;;;;3.25;66.16;98594.06;5096457;28;20069;-71
2021/12/02 03:31:18;;;;;;;0.00;0.00;;;;;;;3.24;66.22;98597.75;5093208;28;20099;-70
2021/12/02 03:33:44;;;;;;;0.00;0.00;;;;;;;3.10;66.52;98575.28;5093466;28;20124;-68
2021/12/02 03:36:11;;;;;;;0.00;0.00;;;;;;;3.18;66.22;98594.19;5093381;28;20021;-69
2021/12/02 03:38:37;;;;;;;0.00;0.00;;;;;;;3.20;66.20;98597.41;5093081;28;20055;-69
2021/12/02 03:41:03;;;;;;;0.00;0.00;;;;;;;3.15;66.64;98599.16;5093787;28;20032;-69
2021/12/02 03:43:41;;;;;;;0.00;0.00;;;;;;;3.07;66.16;98604.84;5093276;28;20032;-71
2021/12/02 03:46:08;;;;;;;0.00;0.00;;;;;;;2.95;66.52;98584.56;5093356;28;20039;-70
2021/12/02 03:48:36;;;;;;;0.00;0.00;;;;;;;3.00;66.49;98592.59;5092943;28;20031;-70
2021/12/02 03:51:03;;;;;;;0.00;0.00;;;;;;;3.08;66.61;98612.53;5093709;28;20496;-69
2021/12/02 03:53:28;;;;;;;0.00;0.00;;;;;;;3.01;66.32;98607.38;5093036;28;20024;-70
2021/12/02 03:55:53;;;;;;;0.00;0.00;;;;;;;2.90;66.54;98588.97;5093295;28;20100;-70
2021/12/02 03:58:19;;;;;;;0.00;0.00;;;;;;;2.96;66.64;98617.06;5093623;28;20046;-69
2021/12/02 04:00:44;;;;;;;0.00;0.00;;;;;;;2.88;66.62;98603.19;5092898;28;20054;-69
2021/12/02 04:03:10;;;;;;;0.00;0.00;;;;;;;2.83;66.80;98594.38;5093564;28;20028;-68
2021/12/02 04:05:35;;;;;;;0.00;0.00;;;;;;;2.92;66.50;98622.03;5093197;28;20076;-71
2021/12/02 04:08:01;;;;;;;0.00;0.00;;;;;;;2.86;66.99;98615.84;5092395;28;20035;-70
2021/12/02 04:10:26;;;;;;;0.00;0.00;;;;;;;2.76;66.75;98599.00;5093029;28;20028;-70
2021/12/02 04:15:27;;;;;;;;;;;;;;;2.77;65.94;98619.91;5093341;28;20463;-71
2021/12/02 04:17:52;;;;;;;0.00;0.00;;;;;;;2.65;66.00;98616.47;5074262;28;19916;-71
2021/12/02 04:20:22;;;;;;;0.00;0.00;;;;;;;2.62;65.60;98619.59;5092844;28;20028;-69
2021/12/02 04:22:49;;;;;;;0.00;0.00;;;;;;;2.43;65.18;98609.22;5092054;28;20065;-69
2021/12/02 04:25:16;;;;;;;0.00;0.00;;;;;;;2.36;65.40;98613.81;5092992;28;20032;-69
2021/12/02 04:27:43;;;;;;;0.00;0.00;;;;;;;2.41;65.53;98627.09;5092529;28;20505;-71
2021/12/02 04:30:12;;;;;;;0.00;0.00;;;;;;;2.24;65.67;98606.69;5092648;28;20035;-70
2021/12/02 04:32:38;;;;;;;0.00;0.00;;;;;;;2.28;65.58;98611.53;5091629;28;20391;-68
2021/12/02 04:35:05;;;;;;;0.00;0.00;;;;;;;2.17;65.81;98616.59;5092401;28;20027;-69
2021/12/02 04:37:30;;;;;;;0.00;0.00;;;;;;;2.20;66.00;98625.88;5092611;28;20111;-69
2021/12/02 04:39:56;;;;;;;0.00;0.00;;;;;;;2.11;66.12;98627.25;5073878;28;20116;-73
2021/12/02 04:42:22;;;;;;;0.00;0.00;;;;;;;2.07;66.05;98638.25;5091508;28;20077;-70
2021/12/02 04:44:47;;;;;;;0.00;0.00;;;;;;;2.06;66.37;98633.22;5092152;28;20060;-71
2021/12/02 04:47:12;;;;;;;0.00;0.00;;;;;;;2.01;66.52;98623.34;5092042;28;20032;-70
2021/12/02 04:49:38;;;;;;;0.00;0.00;;;;;;;1.97;66.54;98640.69;5091775;28;20479;-71
2021/12/02 04:52:04;;;;;;;0.00;0.00;;;;;;;1.90;66.79;98626.81;5091761;28;20028;-75
2021/12/02 04:54:29;;;;;;;0.00;0.00;;;;;;;1.90;66.63;98634.72;5088306;28;20021;-71
2021/12/02 04:56:55;;;;;;;0.00;0.00;;;;;;;1.80;66.89;98629.22;5091835;28;20028;-71
2021/12/02 04:59:20;;;;;;;0.00;0.00;;;;;;;1.83;66.84;98634.84;5091870;28;20498;-71
2021/12/02 05:01:46;;;;;;;0.00;0.00;;;;;;;1.74;66.86;98626.44;5092023;28;20028;-70
2021/12/02 05:04:11;;;;;;;0.00;0.00;;;;;;;1.73;67.00;98640.69;5091780;28;20653;-68
2021/12/02 05:06:37;;;;;;;0.00;0.00;;;;;;;1.75;66.97;98640.44;5091488;28;20036;-70
2021/12/02 05:09:03;;;;;;;0.00;0.00;;;;;;;1.66;66.94;98632.06;5091436;28;20498;-70
2021/12/02 05:11:28;;;;;;;0.00;0.00;;;;;;;1.70;66.97;98649.03;5091819;28;20021;-70
2021/12/02 05:13:54;;;;;;;0.00;0.00;;;;;;;1.41;67.37;98605.91;5091858;28;20150;-69
2021/12/02 05:16:19;;;;;;;0.00;0.00;;;;;;;1.62;67.68;98641.44;5091640;28;20412;-70
2021/12/02 05:18:45;;;;;;;0.00;0.00;;;;;;;1.60;67.94;98638.25;5091323;28;20024;-70
2021/12/02 05:21:10;;;;;;;0.00;0.00;;;;;;;1.66;67.93;98641.78;5091927;28;20095;-71
2021/12/02 05:23:36;;;;;;;0.00;0.00;;;;;;;1.58;67.54;98627.13;5084123;28;20031;-70
2021/12/02 05:26:01;;;;;;;0.00;0.00;;;;;;;1.68;67.78;98648.44;5082843;28;20036;-69
2021/12/02 05:28:27;;;;;;;0.00;0.00;;;;;;;1.66;67.80;98641.78;5091187;28;20106;-69
2021/12/02 05:30:53;;;;;;;0.00;0.00;;;;;;;1.55;67.93;98628.38;5081208;28;20024;-69
2021/12/02 05:33:18;;;;;;;0.00;0.00;;;;;;;1.62;67.91;98643.28;5077131;28;20032;-70
2021/12/02 05:35:45;;;;;;;0.00;0.00;;;;;;;1.64;68.13;98644.66;5070641;28;20025;-70
2021/12/02 05:38:10;;;;;;;0.00;0.00;;;;;;;1.66;68.06;98641.78;5053097;28;20037;-70
2021/12/02 05:40:36;;;;;;;0.00;0.00;;;;;;;1.66;68.02;98653.16;5071081;28;20036;-70
2021/12/02 05:43:01;;;;;;;0.00;0.00;;;;;;;1.60;68.16;98654.06;5070925;28;20025;-69
2021/12/02 05:45:27;;;;;;;0.00;0.00;;;;;;;1.69;68.75;98652.69;5071148;28;20403;-69
2021/12/02 05:47:53;;;;;;;0.00;0.00;;;;;;;1.63;69.02;98642.25;5071037;28;20024;-69
2021/12/02 05:50:18;;;;;;;0.10;0.10;;;;;;;1.74;68.71;98657.28;5071466;28;20036;-71
2021/12/02 05:52:44;;;;;;;0.00;0.00;;;;;;;1.66;68.69;98642.63;5070554;28;20104;-70
2021/12/02 05:55:09;;;;;;;0.00;0.00;;;;;;;1.79;68.66;98656.59;5070529;28;20029;-70
2021/12/02 05:57:35;;;;;;;0.00;0.00;;;;;;;1.85;68.80;98653.84;5070480;28;20024;-70
2021/12/02 06:00:01;;;;;;;0.13;0.13;;;;;;;1.86;68.41;98655.47;5070270;28;20032;-70
2021/12/02 06:02:27;;;;;;;0.00;0.00;;;;;;;1.87;68.13;98656.28;5070401;28;20024;-70
2021/12/02 06:04:53;;;;;;;0.00;0.00;;;;;;;1.95;68.12;98655.91;5069705;28;20541;-69
2021/12/02 06:07:20;;;;;;;0.00;0.00;;;;;;;2.03;68.32;98660.84;5052234;28;20032;-69
2021/12/02 06:09:46;;;;;;;0.00;0.00;;;;;;;2.05;68.17;98660.63;5070068;28;20028;-69
2021/12/02 06:12:13;;;;;;;0.00;0.00;;;;;;;2.13;67.93;98665.56;5070062;28;20158;-69
2021/12/02 06:14:38;;;;;;;0.00;0.00;;;;;;;2.15;67.66;98655.59;5070506;28;20025;-71
2021/12/02 06:17:04;;;;;;;0.00;0.00;;;;;;;2.28;67.78;98657.16;5070466;28;20065;-71
2021/12/02 06:19:29;;;;;;;0.00;0.00;;;;;;;2.35;67.34;98655.22;5070268;28;20719;-71
2021/12/02 06:21:55;;;;;;;0.00;0.00;;;;;;;2.31;67.01;98646.16;5069596;28;20035;-71
2021/12/02 06:24:28;;;;;;;3.35;0.80;;;;;;;2.45;67.36;98645.91;5070026;28;20029;-71
2021/12/02 06:26:53;;;;;;;0.00;0.00;;;;;;;2.56;67.14;98645.91;5070005;28;20033;-71
2021/12/02 06:29:19;;;;;;;0.00;0.00;;;;;;;2.68;67.02;98645.06;5070485;28;20107;-71
2021/12/02 06:31:44;;;;;;;0.00;0.00;;;;;;;2.78;66.94;98647.09;5070126;28;20400;-70
2021/12/02 06:34:10;;;;;;;0.00;0.00;;;;;;;2.80;66.50;98631.84;5070084;28;20322;-69
2021/12/02 06:36:37;;;;;;;0.47;0.47;;;;;;;2.94;66.32;98649.00;5070014;28;20036;-69
2021/12/02 06:39:06;;;;;;;0.00;0.00;;;;;;;3.01;66.00;98641.72;5069923;28;20028;-71
2021/12/02 06:41:32;;;;;;;0.10;0.10;;;;;;;3.10;66.25;98649.28;5070289;28;20037;-71
2021/12/02 06:43:58;;;;;;;3.38;1.88;;;;;;;3.15;66.10;98639.59;5069801;28;20111;-70
2021/12/02 06:46:24;;;;;;;0.43;0.43;;;;;;;3.26;65.69;98635.31;5070057;28;20116;-71
2021/12/02 06:48:49;;;;;;;0.63;0.63;;;;;;;3.47;65.42;98647.03;5051902;28;20566;-71
2021/12/02 06:51:17;;;;;;;0.00;0.00;;;;;;;3.47;64.96;98628.50;5069966;28;20036;-70
2021/12/02 06:53:42;;;;;;;0.00;0.00;;;;;;;3.60;64.53;98631.88;5052228;28;20033;-71
2021/12/02 06:56:08;;;;;;;0.05;0.05;;;;;;;3.71;63.74;98640.78;5070485;28;20029;-71
2021/12/02 06:58:34;;;;;;;0.00;0.00;;;;;;;3.90;63.96;98651.94;5052599;28;20495;-70
2021/12/02 07:00:59;;;;;;;0.15;0.15;;;;;;;3.96;64.03;98650.97;5070294;28;20028;-70
2021/12/02 07:03:25;;;;;;;0.00;0.00;;;;;;;4.06;63.49;98651.09;5070756;28;20025;-70
2021/12/02 07:05:50;;;;;;;0.20;0.20;;;;;;;4.08;62.89;98641.06;5071209;28;20470;-70
2021/12/02 07:08:16;;;;;;;0.00;0.00;;;;;;;4.25;62.97;98661.44;5073890;28;20036;-70
2021/12/02 07:10:42;;;;;;;0.00;0.00;;;;;;;4.15;63.38;98628.47;5073620;28;20036;-69
2021/12/02 07:13:08;;;;;;;0.00;0.00;;;;;;;4.40;63.51;98647.59;5073918;28;20032;-70
2021/12/02 07:15:40;;;;;;;0.38;0.38;;;;;;;4.52;63.44;98647.47;5073939;28;20028;-69
2021/12/02 07:18:12;;;;;;;0.10;0.10;;;;;;;4.64;63.70;98654.25;5074151;28;20029;-70
2021/12/02 07:20:39;;;;;;;0.75;0.55;;;;;;;4.72;63.70;98629.16;5055988;28;20036;-69
2021/12/02 07:23:05;;;;;;;0.20;0.20;;;;;;;4.89;62.98;98638.91;5073672;28;20028;-70
2021/12/02 07:25:32;;;;;;;0.00;0.00;;;;;;;5.06;62.41;98654.72;5073852;28;20029;-70
2021/12/02 07:27:57;;;;;;;0.10;0.10;;;;;;;5.02;61.52;98630.56;5073582;28;20114;-70
2021/12/02 07:30:23;;;;;;;0.80;0.80;;;;;;;5.04;61.30;98628.47;5073796;28;20063;-69
2021/12/02 07:32:54;;;;;;;0.00;0.00;;;;;;;5.18;61.75;98643.97;5073777;28;20029;-70
2021/12/02 07:35:19;;;;;;;2.28;1.60;;;;;;;5.15;61.04;98637.34;5073635;28;20059;-70
2021/12/02 07:37:51;;;;;;;0.10;0.10;;;;;;;5.14;61.04;98630.44;5073486;28;20141;-72
2021/12/02 07:40:18;;;;;;;0.10;0.10;;;;;;;5.25;61.04;98645.38;5055584;28;20025;-70
2021/12/02 07:42:46;;;;;;;1.35;1.17;;;;;;;5.20;61.19;98636.56;5073112;28;20046;-71
2021/12/02 07:45:12;;;;;;;0.13;0.13;;;;;;;5.15;61.63;98637.34;5073469;28;20029;-71
2021/12/02 07:47:39;;;;;;;0.25;0.25;;;;;;;5.19;61.68;98645.56;5073519;28;20035;-69
2021/12/02 07:50:07;;;;;;;0.00;0.00;;;;;;;5.07;62.67;98608.63;5073219;28;20028;-70
2021/12/02 07:52:34;;;;;;;0.17;0.17;;;;;;;5.29;62.20;98637.72;5073454;28;20126;-70
2021/12/02 07:55:04;;;;;;;0.10;0.10;;;;;;;5.31;62.65;98638.28;5073104;28;20025;-69
2021/12/02 07:57:32;;;;;;;0.65;0.65;;;;;;;5.31;62.34;98630.31;5073368;28;20029;-69
2021/12/02 07:59:58;;;;;;;0.00;0.00;;;;;;;5.35;62.48;98638.56;5073052;28;20024;-70
2021/12/02 08:02:28;;;;;;;0.75;0.65;;;;;;;5.34;62.52;98637.75;5073492;28;20028;-70
2021/12/02 08:04:53;;;;;;;0.00;0.00;;;;;;;5.31;63.07;98624.19;5072598;28;20053;-70
2021/12/02 08:07:19;;;;;;;0.20;0.20;;;;;;;5.43;63.34;98624.84;5073088;28;20027;-71
2021/12/02 08:09:44;;;;;;;0.35;0.35;;;;;;;5.50;63.03;98628.06;5054800;28;20123;-70
2021/12/02 08:12:10;;;;;;;0.00;0.00;;;;;;;5.49;62.93;98613.22;5054785;28;20028;-70
2021/12/02 08:14:35;;;;;;;0.22;0.22;;;;;;;5.63;62.89;98615.44;5072931;28;20395;-70
2021/12/02 08:17:01;;;;;;;0.00;0.00;;;;;;;5.65;62.82;98602.72;5071960;28;20031;-70
2021/12/02 08:19:26;;;;;;;0.00;0.00;;;;;;;5.72;62.41;98600.66;5072978;28;20048;-71
2021/12/02 08:21:52;;;;;;;0.28;0.28;;;;;;;5.90;62.77;98612.72;5054583;28;20056;-71
2021/12/02 08:24:21;;;;;;;0.00;0.00;;;;;;;5.97;62.02;98607.19;5072730;28;20033;-71
2021/12/02 08:26:48;;;;;;;0.60;0.60;;;;;;;6.09;61.72;98616.59;5072338;28;20024;-71
2021/12/02 08:29:13;;;;;;;0.00;0.00;;;;;;;6.25;61.95;98617.47;5072263;28;20028;-71
2021/12/02 08:31:39;;;;;;;0.03;0.03;;;;;;;6.41;61.94;98613.03;5072570;28;20035;-71
2021/12/02 08:34:04;;;;;;;0.00;0.00;;;;;;;6.50;60.80;98593.94;5072494;28;20413;-71
2021/12/02 08:36:41;;;;;;;0.17;0.17;;;;;;;6.67;60.74;98613.13;5072574;28;20392;-71
2021/12/02 08:39:07;;;;;;;0.68;0.45;;;;;;;6.81;60.31;98616.13;5072398;28;20028;-69
2021/12/02 08:41:33;;;;;;;1.88;1.77;;;;;;;6.93;60.30;98612.41;5072365;28;20056;-71
2021/12/02 08:44:01;;;;;;;0.17;0.17;;;;;;;7.11;59.36;98614.56;5072191;28;20059;-71
2021/12/02 08:46:27;;;;;;;0.20;0.20;;;;;;;7.22;59.36;98612.72;5072333;28;20028;-71
2021/12/02 08:48:53;;;;;;;0.00;0.00;;;;;;;7.30;58.85;98592.78;5072105;28;20035;-69
2021/12/02 08:51:19;;;;;;;0.40;0.40;;;;;;;7.46;58.30;98599.72;5072259;28;20086;-68
2021/12/02 08:53:44;;;;;;;0.55;0.55;;;;;;;7.56;57.95;98585.59;5071928;28;20025;-70
2021/12/02 08:56:10;;;;;;;0.13;0.13;;;;;;;7.74;57.86;98594.09;5071686;28;20024;-72
2021/12/02 08:58:37;;;;;;;0.50;0.50;;;;;;;7.76;56.91;98579.44;5072059;28;20025;-69
2021/12/02 09:01:03;;;;;;;0.75;0.75;;;;;;;7.92;56.96;98580.25;5071765;28;20467;-72
2021/12/02 09:03:28;;;;;;;0.03;0.03;;;;;;;8.01;56.86;98570.63;5054240;28;20064;-72
2021/12/02 09:05:54;;;;;;;0.20;0.20;;;;;;;8.13;56.45;98566.84;5071855;28;20049;-71
2021/12/02 09:08:23;;;;;;;0.38;0.38;;;;;;;8.27;56.67;98572.41;5071882;28;20024;-71
2021/12/02 09:10:49;;;;;;;0.08;0.08;;;;;;;8.36;56.81;98560.13;5071380;28;20032;-71
2021/12/02 09:13:16;;;;;;;0.10;0.10;;;;;;;8.42;57.09;98550.22;5071757;28;20472;-71
2021/12/02 09:15:41;;;;;;;0.00;0.00;;;;;;;8.48;56.70;98539.31;5071706;28;20028;-71
2021/12/02 09:18:07;;;;;;;0.00;0.00;;;;;;;8.61;56.64;98537.91;5071260;28;20551;-70
2021/12/02 09:20:33;;;;;;;0.00;0.00;;;;;;;8.80;56.68;98543.41;5071675;28;20465;-71
2021/12/02 09:22:58;;;;;;;0.15;0.15;;;;;;;8.89;56.73;98540.16;5071484;28;20495;-71
2021/12/02 09:25:24;;;;;;;0.00;0.00;;;;;;;8.98;56.32;98525.13;5071337;28;20079;-71
2021/12/02 09:27:50;;;;;;;0.10;0.10;;;;;;;9.00;56.07;98516.88;5070950;28;20020;-71
2021/12/02 09:30:16;;;;;;;0.30;0.30;;;;;;;9.07;55.50;98509.34;5070766;28;20407;-71
2021/12/02 09:32:42;;;;;;;0.20;0.20;;;;;;;9.23;55.60;98520.69;5071519;28;20028;-71
2021/12/02 09:35:09;;;;;;;0.03;0.03;;;;;;;9.26;55.39;98510.25;5053286;28;20028;-71
2021/12/02 09:37:34;;;;;;;0.00;0.00;;;;;;;9.37;54.72;98513.63;5071365;28;20031;-71
2021/12/02 09:40:00;;;;;;;0.00;0.00;;;;;;;9.39;53.90;98495.47;5071191;28;20050;-71
2021/12/02 09:42:25;;;;;;;0.38;0.38;;;;;;;9.45;54.49;98497.00;5053050;28;20517;-72
2021/12/02 09:44:55;;;;;;;0.10;0.10;;;;;;;9.53;54.43;98481.44;5053088;28;20032;-71
2021/12/02 09:47:21;;;;;;;0.22;0.22;;;;;;;9.64;55.16;98482.94;5071268;28;20025;-71
2021/12/02 09:49:48;;;;;;;0.63;0.63;;;;;;;9.60;55.60;98488.03;5053215;28;20056;-71
2021/12/02 09:52:15;;;;;;;0.00;0.00;;;;;;;9.57;56.35;98485.13;5070940;28;20082;-71
2021/12/02 09:54:43;;;;;;;0.80;0.80;;;;;;;9.61;56.50;98481.63;5070886;28;20474;-71
2021/12/02 09:57:13;;;;;;;0.10;0.10;;;;;;;9.65;56.29;98486.41;5070912;28;20031;-73
2021/12/02 10:02:09;;;;;;;0.35;0.35;;;;;;;9.76;55.92;98469.19;5070884;28;20029;-71
2021/12/02 10:04:42;;;;;;;2.00;0.43;;;;;;;9.87;55.54;98461.84;5070976;28;20040;-70
2021/12/02 10:07:21;;;;;;;0.00;0.00;;;;;;;9.87;56.07;98451.19;5070848;28;20067;-70
2021/12/02 10:10:04;;;;;;;0.13;0.13;;;;;;;10.03;55.67;98454.44;5052732;28;20400;-70
2021/12/02 10:12:34;;;;;;;0.15;0.15;;;;;;;10.13;55.43;98451.66;5070792;28;20029;-70
2021/12/02 10:15:02;;;;;;;0.40;0.40;;;;;;;10.19;55.31;98445.16;5070710;28;20024;-71
2021/12/02 10:17:49;;;;;;;;;;;;;;;10.33;54.86;98445.22;5071365;28;20029;-72
2021/12/02 10:20:41;;;;;;;0.75;0.75;;;;;;;10.33;55.35;98431.88;5070994;28;19908;-71
2021/12/02 10:23:30;;;;;;;0.00;0.00;;;;;;;10.49;55.03;98426.34;5070771;28;20041;-72
2021/12/02 10:26:00;;;;;;;0.00;0.00;;;;;;;10.57;55.57;98434.50;5070872;28;20166;-71
2021/12/02 10:28:28;;;;;;;0.32;0.32;;;;;;;10.66;55.19;98429.28;5070781;28;20032;-71
2021/12/02 10:30:59;;;;;;;0.10;0.10;;;;;;;10.69;55.27;98414.53;5052542;28;20028;-70
2021/12/02 10:33:34;;;;;;;0.00;0.00;;;;;;;10.79;55.43;98419.72;5070534;28;20400;-70
2021/12/02 10:36:01;;;;;;;0.25;0.25;;;;;;;10.89;54.73;98418.75;5070430;28;20021;-71
2021/12/02 10:38:40;;;;;;;1.27;1.17;;;;;;;11.05;55.16;98413.94;5070660;28;20029;-71
2021/12/02 10:41:18;;;;;;;0.00;0.00;;;;;;;11.12;54.54;98403.66;5073617;28;20852;-71
2021/12/02 10:44:08;;;;;;;7.38;2.55;;;;;;;11.20;54.81;98394.94;5074711;28;20080;-71
2021/12/02 10:46:36;;;;;;;0.00;0.00;;;;;;;11.23;54.41;98380.16;5056747;28;20039;-71
2021/12/02 10:49:04;;;;;;;0.00;0.00;;;;;;;11.26;54.12;98378.78;5074469;28;20021;-71
2021/12/02 10:51:40;;;;;;;0.10;0.10;;;;;;;11.47;53.99;98387.97;5074550;28;20066;-71
2021/12/02 10:54:13;;;;;;;0.47;0.43;;;;;;;11.46;53.78;98370.34;5073965;28;20090;-71
2021/12/02 10:56:40;;;;;;;0.00;0.00;;;;;;;11.62;54.07;98370.03;5074337;28;20028;-71
2021/12/02 10:59:31;;;;;;;0.73;0.73;;;;;;;11.69;54.29;98360.53;5073892;28;20522;-71
2021/12/02 11:02:23;;;;;;;0.00;0.00;;;;;;;11.84;54.32;98363.97;5074147;28;20037;-71
2021/12/02 11:05:02;;;;;;;0.30;0.30;;;;;;;11.95;53.02;98346.56;5074458;28;20055;-71
2021/12/02 11:07:27;;;;;;;0.40;0.40;;;;;;;12.12;52.85;98351.31;5074131;28;20020;-71
2021/12/02 11:09:55;;;;;;;0.00;0.00;;;;;;;12.23;52.80;98343.84;5074146;28;20041;-71
2021/12/02 11:12:25;;;;;;;0.00;0.00;;;;;;;12.40;52.70;98351.22;5074119;28;20392;-72
2021/12/02 11:15:08;;;;;;;0.03;0.03;;;;;;;12.53;53.26;98346.09;5073906;28;20025;-72
2021/12/02 11:17:42;;;;;;;0.10;0.10;;;;;;;12.61;53.13;98330.03;5073833;28;20408;-72
2021/12/02 11:20:11;;;;;;;0.20;0.20;;;;;;;12.72;50.73;98324.41;5073576;28;20472;-72
2021/12/02 11:22:36;;;;;;;0.32;0.32;;;;;;;12.81;49.79;98314.53;5073992;28;20116;-72
2021/12/02 11:25:04;;;;;;;0.08;0.08;;;;;;;13.02;49.11;98317.44;5055713;28;20119;-72
2021/12/02 11:27:37;;;;;;;0.13;0.13;;;;;;;13.17;49.20;98324.31;5073536;28;20534;-72
2021/12/02 11:30:16;;;;;;;0.05;0.05;;;;;;;13.29;48.38;98313.75;5073456;28;20032;-72
2021/12/02 11:32:49;;;;;;;0.00;0.00;;;;;;;13.41;47.67;98310.47;5073887;28;20029;-73
2021/12/02 11:35:18;;;;;;;0.10;0.10;;;;;;;13.43;47.62;98300.22;5073521;28;20035;-72
2021/12/02 11:37:50;;;;;;;0.00;0.00;;;;;;;13.54;47.13;98300.72;5055376;28;20078;-71
2021/12/02 11:40:21;;;;;;;0.05;0.05;;;;;;;13.67;47.43;98300.91;5073364;28;20025;-71
2021/12/02 11:42:50;;;;;;;0.00;0.00;;;;;;;13.74;46.89;98301.22;5073579;28;20024;-71
2021/12/02 11:45:18;;;;;;;0.00;0.00;;;;;;;13.77;46.75;98287.94;5073383;28;20032;-71
2021/12/02 11:47:44;;;;;;;0.00;0.00;;;;;;;13.91;46.19;98305.81;5073383;28;20032;-71
2021/12/02 11:50:13;;;;;;;0.00;0.00;;;;;;;13.89;45.90;98290.00;5055239;28;20033;-71
2021/12/02 11:52:40;;;;;;;0.10;0.10;;;;;;;13.99;45.71;98291.59;5072205;28;20573;-71
2021/12/02 11:55:10;;;;;;;0.00;0.00;;;;;;;14.01;45.06;98281.31;5072963;28;20081;-72
2021/12/02 11:57:35;;;;;;;0.00;0.00;;;;;;;14.13;45.31;98285.25;5072966;28;20025;-71
2021/12/02 12:00:05;;;;;;;0.00;0.00;;;;;;;14.13;45.23;98282.56;5054779;28;20027;-72
2021/12/02 12:02:31;;;;;;;0.00;0.00;;;;;;;14.18;45.18;98285.88;5055145;28;20103;-71
2021/12/02 12:05:05;;;;;;;0.00;0.00;;;;;;;14.23;45.54;98277.66;5072660;28;20105;-72